sensor_id;sensor_type;location;lat;lon;timestamp;P1;durP1;ratioP1;P2;durP2;ratioP2
19727;SDS011;10015;52.530;13.390;2023-04-06T00:02:17;9.17;;;4.70;;
19727;SDS011;10015;52.530;13.390;2023-04-06T00:04:43;11.70;;;6.87;;
19727;SDS011;10015;52.530;13.390;2023-04-06T00:07:10;20.77;;;8.93;;
19727;SDS011;10015;52.530;13.390;2023-04-06T00:09:36;13.90;;;6.50;;
19727;SDS011;10015;52.530;13.390;2023-04-06T00:12:02;8.37;;;4.50;;
19727;SDS011;10015;52.530;13.390;2023-04-06T00:14:28;7.67;;;3.70;;
19727;SDS011;10015;52.530;13.390;2023-04-06T00:16:55;9.33;;;4.20;;
19727;SDS011;10015;52.530;13.390;2023-04-06T00:19:21;6.70;;;3.63;;
19727;SDS011;10015;52.530;13.390;2023-04-06T00:21:47;7.63;;;3.83;;
19727;SDS011;10015;52.530;13.390;2023-04-06T00:24:15;7.07;;;3.87;;
19727;SDS011;10015;52.530;13.390;2023-04-06T00:26:41;8.57;;;4.30;;
19727;SDS011;10015;52.530;13.390;2023-04-06T00:29:07;6.97;;;3.80;;
19727;SDS011;10015;52.530;13.390;2023-04-06T00:31:34;7.23;;;4.00;;
19727;SDS011;10015;52.530;13.390;2023-04-06T00:34:00;5.33;;;3.37;;
19727;SDS011;10015;52.530;13.390;2023-04-06T00:36:26;7.17;;;3.67;;
19727;SDS011;10015;52.530;13.390;2023-04-06T00:38:52;6.47;;;3.90;;
19727;SDS011;10015;52.530;13.390;2023-04-06T00:41:19;6.27;;;3.57;;
19727;SDS011;10015;52.530;13.390;2023-04-06T00:43:46;4.57;;;3.33;;
19727;SDS011;10015;52.530;13.390;2023-04-06T00:46:12;7.83;;;3.93;;
19727;SDS011;10015;52.530;13.390;2023-04-06T00:48:38;8.93;;;4.00;;
19727;SDS011;10015;52.530;13.390;2023-04-06T00:51:04;7.43;;;3.60;;
19727;SDS011;10015;52.530;13.390;2023-04-06T00:53:31;7.47;;;3.77;;
19727;SDS011;10015;52.530;13.390;2023-04-06T00:55:59;7.47;;;3.63;;
19727;SDS011;10015;52.530;13.390;2023-04-06T00:58:25;5.17;;;3.23;;
19727;SDS011;10015;52.530;13.390;2023-04-06T01:01:00;7.07;;;3.60;;
19727;SDS011;10015;52.530;13.390;2023-04-06T01:03:27;5.87;;;3.70;;
19727;SDS011;10015;52.530;13.390;2023-04-06T01:05:53;6.23;;;3.60;;
19727;SDS011;10015;52.530;13.390;2023-04-06T01:08:27;6.93;;;3.30;;
19727;SDS011;10015;52.530;13.390;2023-04-06T01:11:07;6.90;;;3.53;;
19727;SDS011;10015;52.530;13.390;2023-04-06T01:13:33;6.37;;;3.53;;
19727;SDS011;10015;52.530;13.390;2023-04-06T01:16:03;5.63;;;3.60;;
19727;SDS011;10015;52.530;13.390;2023-04-06T01:19:11;6.67;;;3.17;;
19727;SDS011;10015;52.530;13.390;2023-04-06T01:21:43;7.43;;;3.37;;
19727;SDS011;10015;52.530;13.390;2023-04-06T01:24:35;5.87;;;3.30;;
19727;SDS011;10015;52.530;13.390;2023-04-06T01:27:26;6.27;;;3.23;;
19727;SDS011;10015;52.530;13.390;2023-04-06T01:29:56;8.37;;;3.23;;
19727;SDS011;10015;52.530;13.390;2023-04-06T01:32:57;8.57;;;3.77;;
19727;SDS011;10015;52.530;13.390;2023-04-06T01:35:59;9.70;;;3.17;;
19727;SDS011;10015;52.530;13.390;2023-04-06T01:38:26;5.53;;;3.13;;
19727;SDS011;10015;52.530;13.390;2023-04-06T01:40:54;5.00;;;3.17;;
19727;SDS011;10015;52.530;13.390;2023-04-06T01:43:22;6.80;;;3.57;;
19727;SDS011;10015;52.530;13.390;2023-04-06T01:46:18;8.77;;;3.57;;
19727;SDS011;10015;52.530;13.390;2023-04-06T01:48:44;6.93;;;3.80;;
19727;SDS011;10015;52.530;13.390;2023-04-06T01:51:19;8.47;;;3.60;;
19727;SDS011;10015;52.530;13.390;2023-04-06T01:53:51;4.83;;;3.33;;
19727;SDS011;10015;52.530;13.390;2023-04-06T01:56:19;4.80;;;3.20;;
19727;SDS011;10015;52.530;13.390;2023-04-06T01:58:56;6.23;;;3.73;;
19727;SDS011;10015;52.530;13.390;2023-04-06T02:01:25;9.27;;;3.87;;
19727;SDS011;10015;52.530;13.390;2023-04-06T02:03:55;4.87;;;3.13;;
19727;SDS011;10015;52.530;13.390;2023-04-06T02:06:21;7.47;;;3.47;;
19727;SDS011;10015;52.530;13.390;2023-04-06T02:08:48;9.90;;;3.50;;
19727;SDS011;10015;52.530;13.390;2023-04-06T02:11:14;9.03;;;3.97;;
19727;SDS011;10015;52.530;13.390;2023-04-06T02:13:45;6.57;;;3.27;;
19727;SDS011;10015;52.530;13.390;2023-04-06T02:16:12;5.33;;;3.50;;
19727;SDS011;10015;52.530;13.390;2023-04-06T02:18:38;6.97;;;3.60;;
19727;SDS011;10015;52.530;13.390;2023-04-06T02:21:04;5.60;;;3.60;;
19727;SDS011;10015;52.530;13.390;2023-04-06T02:23:31;5.23;;;3.63;;
19727;SDS011;10015;52.530;13.390;2023-04-06T02:25:57;7.13;;;3.63;;
19727;SDS011;10015;52.530;13.390;2023-04-06T02:28:23;5.47;;;3.27;;
19727;SDS011;10015;52.530;13.390;2023-04-06T02:30:49;8.27;;;3.50;;
19727;SDS011;10015;52.530;13.390;2023-04-06T02:33:16;6.67;;;3.50;;
19727;SDS011;10015;52.530;13.390;2023-04-06T02:35:45;5.53;;;3.10;;
19727;SDS011;10015;52.530;13.390;2023-04-06T02:38:11;8.70;;;3.67;;
19727;SDS011;10015;52.530;13.390;2023-04-06T02:40:37;6.40;;;3.67;;
19727;SDS011;10015;52.530;13.390;2023-04-06T02:43:24;7.53;;;3.63;;
19727;SDS011;10015;52.530;13.390;2023-04-06T02:45:56;8.60;;;3.80;;
19727;SDS011;10015;52.530;13.390;2023-04-06T02:48:24;8.60;;;3.77;;
19727;SDS011;10015;52.530;13.390;2023-04-06T02:50:51;7.33;;;3.80;;
19727;SDS011;10015;52.530;13.390;2023-04-06T02:53:17;7.47;;;3.87;;
19727;SDS011;10015;52.530;13.390;2023-04-06T02:55:44;4.70;;;3.10;;
19727;SDS011;10015;52.530;13.390;2023-04-06T02:58:10;5.97;;;3.40;;
19727;SDS011;10015;52.530;13.390;2023-04-06T03:00:43;4.93;;;3.00;;
19727;SDS011;10015;52.530;13.390;2023-04-06T03:03:09;7.73;;;3.70;;
19727;SDS011;10015;52.530;13.390;2023-04-06T03:05:36;6.10;;;3.70;;
19727;SDS011;10015;52.530;13.390;2023-04-06T03:08:02;6.00;;;3.80;;
19727;SDS011;10015;52.530;13.390;2023-04-06T03:10:38;13.07;;;4.33;;
19727;SDS011;10015;52.530;13.390;2023-04-06T03:13:04;6.70;;;4.07;;
19727;SDS011;10015;52.530;13.390;2023-04-06T03:15:42;14.73;;;6.80;;
19727;SDS011;10015;52.530;13.390;2023-04-06T03:18:15;22.53;;;10.20;;
19727;SDS011;10015;52.530;13.390;2023-04-06T03:20:46;35.13;;;15.00;;
19727;SDS011;10015;52.530;13.390;2023-04-06T03:23:15;43.10;;;15.17;;
19727;SDS011;10015;52.530;13.390;2023-04-06T03:25:43;51.40;;;17.30;;
19727;SDS011;10015;52.530;13.390;2023-04-06T03:28:14;41.57;;;15.13;;
19727;SDS011;10015;52.530;13.390;2023-04-06T03:30:54;35.67;;;14.33;;
19727;SDS011;10015;52.530;13.390;2023-04-06T03:33:36;38.73;;;14.27;;
19727;SDS011;10015;52.530;13.390;2023-04-06T03:36:02;39.77;;;15.43;;
19727;SDS011;10015;52.530;13.390;2023-04-06T03:38:35;33.57;;;14.27;;
19727;SDS011;10015;52.530;13.390;2023-04-06T03:41:06;25.73;;;11.40;;
19727;SDS011;10015;52.530;13.390;2023-04-06T03:43:32;28.80;;;11.60;;
19727;SDS011;10015;52.530;13.390;2023-04-06T03:45:58;17.63;;;8.50;;
19727;SDS011;10015;52.530;13.390;2023-04-06T03:48:25;19.00;;;7.80;;
19727;SDS011;10015;52.530;13.390;2023-04-06T03:50:51;13.33;;;6.40;;
19727;SDS011;10015;52.530;13.390;2023-04-06T03:53:17;12.70;;;5.20;;
19727;SDS011;10015;52.530;13.390;2023-04-06T03:55:43;10.37;;;5.60;;
19727;SDS011;10015;52.530;13.390;2023-04-06T03:58:09;15.33;;;6.00;;
19727;SDS011;10015;52.530;13.390;2023-04-06T04:00:36;12.50;;;5.27;;
19727;SDS011;10015;52.530;13.390;2023-04-06T04:03:02;10.63;;;4.50;;
19727;SDS011;10015;52.530;13.390;2023-04-06T04:05:28;7.77;;;4.90;;
19727;SDS011;10015;52.530;13.390;2023-04-06T04:07:54;12.93;;;5.13;;
19727;SDS011;10015;52.530;13.390;2023-04-06T04:10:27;15.93;;;5.63;;
19727;SDS011;10015;52.530;13.390;2023-04-06T04:12:53;9.17;;;5.40;;
19727;SDS011;10015;52.530;13.390;2023-04-06T04:15:20;6.77;;;4.33;;
19727;SDS011;10015;52.530;13.390;2023-04-06T04:17:47;11.17;;;5.50;;
19727;SDS011;10015;52.530;13.390;2023-04-06T04:20:15;10.93;;;5.47;;
19727;SDS011;10015;52.530;13.390;2023-04-06T04:22:42;9.53;;;4.97;;
19727;SDS011;10015;52.530;13.390;2023-04-06T04:25:09;11.13;;;5.40;;
19727;SDS011;10015;52.530;13.390;2023-04-06T04:27:40;11.37;;;6.27;;
19727;SDS011;10015;52.530;13.390;2023-04-06T04:30:06;15.10;;;6.80;;
19727;SDS011;10015;52.530;13.390;2023-04-06T04:32:33;14.23;;;6.50;;
19727;SDS011;10015;52.530;13.390;2023-04-06T04:35:01;15.60;;;6.93;;
19727;SDS011;10015;52.530;13.390;2023-04-06T04:37:35;15.80;;;6.90;;
19727;SDS011;10015;52.530;13.390;2023-04-06T04:40:02;19.77;;;8.80;;
19727;SDS011;10015;52.530;13.390;2023-04-06T04:42:33;19.43;;;7.27;;
19727;SDS011;10015;52.530;13.390;2023-04-06T04:45:01;16.53;;;7.27;;
19727;SDS011;10015;52.530;13.390;2023-04-06T04:47:35;11.83;;;6.70;;
19727;SDS011;10015;52.530;13.390;2023-04-06T04:50:02;15.57;;;7.03;;
19727;SDS011;10015;52.530;13.390;2023-04-06T04:52:29;13.90;;;7.57;;
19727;SDS011;10015;52.530;13.390;2023-04-06T04:55:14;18.20;;;7.40;;
19727;SDS011;10015;52.530;13.390;2023-04-06T04:57:42;14.90;;;7.00;;
19727;SDS011;10015;52.530;13.390;2023-04-06T05:00:09;12.20;;;7.33;;
19727;SDS011;10015;52.530;13.390;2023-04-06T05:02:39;14.00;;;6.90;;
19727;SDS011;10015;52.530;13.390;2023-04-06T05:05:27;11.23;;;6.83;;
19727;SDS011;10015;52.530;13.390;2023-04-06T05:07:53;12.00;;;6.73;;
19727;SDS011;10015;52.530;13.390;2023-04-06T05:10:41;15.77;;;7.17;;
19727;SDS011;10015;52.530;13.390;2023-04-06T05:13:07;11.67;;;6.57;;
19727;SDS011;10015;52.530;13.390;2023-04-06T05:15:34;14.97;;;7.20;;
19727;SDS011;10015;52.530;13.390;2023-04-06T05:18:07;10.57;;;6.60;;
19727;SDS011;10015;52.530;13.390;2023-04-06T05:20:34;10.53;;;6.93;;
19727;SDS011;10015;52.530;13.390;2023-04-06T05:23:02;9.97;;;5.87;;
19727;SDS011;10015;52.530;13.390;2023-04-06T05:25:29;8.50;;;6.07;;
19727;SDS011;10015;52.530;13.390;2023-04-06T05:28:01;10.77;;;6.90;;
19727;SDS011;10015;52.530;13.390;2023-04-06T05:30:30;11.57;;;6.40;;
19727;SDS011;10015;52.530;13.390;2023-04-06T05:32:58;13.87;;;7.17;;
19727;SDS011;10015;52.530;13.390;2023-04-06T05:35:29;16.20;;;7.40;;
19727;SDS011;10015;52.530;13.390;2023-04-06T05:38:00;10.87;;;6.57;;
19727;SDS011;10015;52.530;13.390;2023-04-06T05:40:26;14.03;;;6.77;;
19727;SDS011;10015;52.530;13.390;2023-04-06T05:42:53;14.70;;;6.80;;
19727;SDS011;10015;52.530;13.390;2023-04-06T05:45:20;11.23;;;6.30;;
19727;SDS011;10015;52.530;13.390;2023-04-06T05:47:51;11.30;;;6.00;;
19727;SDS011;10015;52.530;13.390;2023-04-06T05:50:22;11.77;;;5.90;;
19727;SDS011;10015;52.530;13.390;2023-04-06T05:52:49;9.17;;;6.00;;
19727;SDS011;10015;52.530;13.390;2023-04-06T05:55:18;9.50;;;5.70;;
19727;SDS011;10015;52.530;13.390;2023-04-06T05:57:50;8.17;;;5.50;;
19727;SDS011;10015;52.530;13.390;2023-04-06T06:00:18;9.47;;;6.03;;
19727;SDS011;10015;52.530;13.390;2023-04-06T06:02:53;10.30;;;6.43;;
19727;SDS011;10015;52.530;13.390;2023-04-06T06:05:24;10.93;;;6.27;;
19727;SDS011;10015;52.530;13.390;2023-04-06T06:07:50;11.00;;;5.67;;
19727;SDS011;10015;52.530;13.390;2023-04-06T06:10:16;8.80;;;5.47;;
19727;SDS011;10015;52.530;13.390;2023-04-06T06:12:42;9.83;;;5.93;;
19727;SDS011;10015;52.530;13.390;2023-04-06T06:15:08;7.13;;;5.50;;
19727;SDS011;10015;52.530;13.390;2023-04-06T06:17:39;9.50;;;5.70;;
19727;SDS011;10015;52.530;13.390;2023-04-06T06:20:06;9.40;;;6.30;;
19727;SDS011;10015;52.530;13.390;2023-04-06T06:22:35;10.07;;;5.47;;
19727;SDS011;10015;52.530;13.390;2023-04-06T06:25:01;9.37;;;5.93;;
19727;SDS011;10015;52.530;13.390;2023-04-06T06:27:28;12.83;;;6.43;;
19727;SDS011;10015;52.530;13.390;2023-04-06T06:29:54;10.57;;;6.13;;
19727;SDS011;10015;52.530;13.390;2023-04-06T06:32:22;11.13;;;6.00;;
19727;SDS011;10015;52.530;13.390;2023-04-06T06:34:50;10.43;;;5.70;;
19727;SDS011;10015;52.530;13.390;2023-04-06T06:37:17;11.37;;;6.10;;
19727;SDS011;10015;52.530;13.390;2023-04-06T06:39:44;9.10;;;5.90;;
19727;SDS011;10015;52.530;13.390;2023-04-06T06:42:13;8.83;;;5.97;;
19727;SDS011;10015;52.530;13.390;2023-04-06T06:44:51;10.77;;;5.90;;
19727;SDS011;10015;52.530;13.390;2023-04-06T06:47:18;10.80;;;6.00;;
19727;SDS011;10015;52.530;13.390;2023-04-06T06:49:44;10.40;;;5.53;;
19727;SDS011;10015;52.530;13.390;2023-04-06T06:52:10;12.27;;;5.20;;
19727;SDS011;10015;52.530;13.390;2023-04-06T06:54:36;12.33;;;6.00;;
19727;SDS011;10015;52.530;13.390;2023-04-06T06:57:02;7.80;;;5.50;;
19727;SDS011;10015;52.530;13.390;2023-04-06T06:59:28;9.27;;;5.20;;
19727;SDS011;10015;52.530;13.390;2023-04-06T07:01:55;8.43;;;5.20;;
19727;SDS011;10015;52.530;13.390;2023-04-06T07:04:21;8.30;;;4.70;;
19727;SDS011;10015;52.530;13.390;2023-04-06T07:06:47;12.70;;;5.33;;
19727;SDS011;10015;52.530;13.390;2023-04-06T07:09:13;8.10;;;4.83;;
19727;SDS011;10015;52.530;13.390;2023-04-06T07:11:40;7.70;;;4.70;;
19727;SDS011;10015;52.530;13.390;2023-04-06T07:14:06;9.73;;;4.73;;
19727;SDS011;10015;52.530;13.390;2023-04-06T07:16:32;12.77;;;5.57;;
19727;SDS011;10015;52.530;13.390;2023-04-06T07:18:58;10.90;;;5.10;;
19727;SDS011;10015;52.530;13.390;2023-04-06T07:21:31;7.33;;;5.20;;
19727;SDS011;10015;52.530;13.390;2023-04-06T07:24:00;10.13;;;5.93;;
19727;SDS011;10015;52.530;13.390;2023-04-06T07:26:32;10.27;;;5.13;;
19727;SDS011;10015;52.530;13.390;2023-04-06T07:28:58;7.87;;;4.40;;
19727;SDS011;10015;52.530;13.390;2023-04-06T07:31:25;7.47;;;5.27;;
19727;SDS011;10015;52.530;13.390;2023-04-06T07:33:52;6.87;;;4.57;;
19727;SDS011;10015;52.530;13.390;2023-04-06T07:36:20;9.00;;;5.17;;
19727;SDS011;10015;52.530;13.390;2023-04-06T07:38:47;10.40;;;4.53;;
19727;SDS011;10015;52.530;13.390;2023-04-06T07:41:14;7.40;;;4.67;;
19727;SDS011;10015;52.530;13.390;2023-04-06T07:43:42;10.77;;;4.93;;
19727;SDS011;10015;52.530;13.390;2023-04-06T07:46:09;8.57;;;5.03;;
19727;SDS011;10015;52.530;13.390;2023-04-06T07:48:35;11.87;;;4.90;;
19727;SDS011;10015;52.530;13.390;2023-04-06T07:51:06;9.07;;;4.23;;
19727;SDS011;10015;52.530;13.390;2023-04-06T07:53:48;7.10;;;4.50;;
19727;SDS011;10015;52.530;13.390;2023-04-06T07:56:19;7.73;;;4.47;;
19727;SDS011;10015;52.530;13.390;2023-04-06T07:58:49;8.87;;;4.67;;
19727;SDS011;10015;52.530;13.390;2023-04-06T08:01:15;9.27;;;4.90;;
19727;SDS011;10015;52.530;13.390;2023-04-06T08:03:41;8.63;;;4.37;;
19727;SDS011;10015;52.530;13.390;2023-04-06T08:06:08;7.30;;;4.13;;
19727;SDS011;10015;52.530;13.390;2023-04-06T08:08:34;7.23;;;3.93;;
19727;SDS011;10015;52.530;13.390;2023-04-06T08:11:00;8.73;;;4.03;;
19727;SDS011;10015;52.530;13.390;2023-04-06T08:13:28;7.20;;;4.27;;
19727;SDS011;10015;52.530;13.390;2023-04-06T08:15:54;9.60;;;3.87;;
19727;SDS011;10015;52.530;13.390;2023-04-06T08:18:24;7.87;;;3.73;;
19727;SDS011;10015;52.530;13.390;2023-04-06T08:20:50;6.40;;;3.97;;
19727;SDS011;10015;52.530;13.390;2023-04-06T08:23:16;5.60;;;3.00;;
19727;SDS011;10015;52.530;13.390;2023-04-06T08:25:45;6.97;;;3.27;;
19727;SDS011;10015;52.530;13.390;2023-04-06T08:28:22;5.17;;;3.70;;
19727;SDS011;10015;52.530;13.390;2023-04-06T08:30:49;5.57;;;3.10;;
19727;SDS011;10015;52.530;13.390;2023-04-06T08:33:16;5.97;;;3.00;;
19727;SDS011;10015;52.530;13.390;2023-04-06T08:35:42;4.77;;;2.93;;
19727;SDS011;10015;52.530;13.390;2023-04-06T08:38:12;6.20;;;3.30;;
19727;SDS011;10015;52.530;13.390;2023-04-06T08:40:45;5.73;;;2.87;;
19727;SDS011;10015;52.530;13.390;2023-04-06T08:43:16;4.63;;;2.53;;
19727;SDS011;10015;52.530;13.390;2023-04-06T08:45:48;4.87;;;2.60;;
19727;SDS011;10015;52.530;13.390;2023-04-06T08:48:14;8.20;;;3.00;;
19727;SDS011;10015;52.530;13.390;2023-04-06T08:50:43;4.77;;;2.70;;
19727;SDS011;10015;52.530;13.390;2023-04-06T08:53:13;5.03;;;2.30;;
19727;SDS011;10015;52.530;13.390;2023-04-06T08:55:41;4.37;;;2.63;;
19727;SDS011;10015;52.530;13.390;2023-04-06T08:58:12;3.57;;;2.40;;
19727;SDS011;10015;52.530;13.390;2023-04-06T09:00:41;5.80;;;2.10;;
19727;SDS011;10015;52.530;13.390;2023-04-06T09:03:08;3.30;;;2.10;;
19727;SDS011;10015;52.530;13.390;2023-04-06T09:05:38;4.83;;;1.73;;
19727;SDS011;10015;52.530;13.390;2023-04-06T09:08:05;2.73;;;2.03;;
19727;SDS011;10015;52.530;13.390;2023-04-06T09:10:32;4.80;;;2.20;;
19727;SDS011;10015;52.530;13.390;2023-04-06T09:13:09;4.00;;;2.00;;
19727;SDS011;10015;52.530;13.390;2023-04-06T09:15:38;4.93;;;2.10;;
19727;SDS011;10015;52.530;13.390;2023-04-06T09:21:30;5.37;;;2.20;;
19727;SDS011;10015;52.530;13.390;2023-04-06T09:24:07;3.43;;;2.07;;
19727;SDS011;10015;52.530;13.390;2023-04-06T09:26:45;3.90;;;2.07;;
19727;SDS011;10015;52.530;13.390;2023-04-06T09:29:31;5.07;;;2.30;;
19727;SDS011;10015;52.530;13.390;2023-04-06T09:32:06;3.47;;;1.97;;
19727;SDS011;10015;52.530;13.390;2023-04-06T09:35:05;4.43;;;1.90;;
19727;SDS011;10015;52.530;13.390;2023-04-06T09:38:28;3.73;;;1.90;;
19727;SDS011;10015;52.530;13.390;2023-04-06T09:41:00;3.60;;;1.80;;
19727;SDS011;10015;52.530;13.390;2023-04-06T09:43:37;3.10;;;1.90;;
19727;SDS011;10015;52.530;13.390;2023-04-06T09:46:04;4.33;;;2.07;;
19727;SDS011;10015;52.530;13.390;2023-04-06T09:48:50;3.37;;;2.10;;
19727;SDS011;10015;52.530;13.390;2023-04-06T09:51:58;2.70;;;1.60;;
19727;SDS011;10015;52.530;13.390;2023-04-06T09:54:31;4.57;;;2.07;;
19727;SDS011;10015;52.530;13.390;2023-04-06T10:06:15;7.27;;;1.80;;
19727;SDS011;10015;52.530;13.390;2023-04-06T10:08:50;2.73;;;1.50;;
19727;SDS011;10015;52.530;13.390;2023-04-06T10:11:25;3.43;;;1.83;;
19727;SDS011;10015;52.530;13.390;2023-04-06T10:13:52;2.37;;;1.60;;
19727;SDS011;10015;52.530;13.390;2023-04-06T10:16:52;2.67;;;1.37;;
19727;SDS011;10015;52.530;13.390;2023-04-06T10:19:47;2.47;;;1.37;;
19727;SDS011;10015;52.530;13.390;2023-04-06T10:25:39;2.43;;;1.40;;
19727;SDS011;10015;52.530;13.390;2023-04-06T10:28:11;2.47;;;1.47;;
19727;SDS011;10015;52.530;13.390;2023-04-06T10:31:29;2.50;;;1.57;;
19727;SDS011;10015;52.530;13.390;2023-04-06T10:36:31;4.57;;;1.73;;
19727;SDS011;10015;52.530;13.390;2023-04-06T10:42:20;5.20;;;1.90;;
19727;SDS011;10015;52.530;13.390;2023-04-06T10:49:17;2.13;;;1.53;;
19727;SDS011;10015;52.530;13.390;2023-04-06T10:51:55;3.20;;;1.73;;
19727;SDS011;10015;52.530;13.390;2023-04-06T11:19:04;5.07;;;1.77;;
19727;SDS011;10015;52.530;13.390;2023-04-06T11:21:46;3.90;;;1.60;;
19727;SDS011;10015;52.530;13.390;2023-04-06T11:24:43;2.57;;;1.63;;
19727;SDS011;10015;52.530;13.390;2023-04-06T11:30:55;3.30;;;1.60;;
19727;SDS011;10015;52.530;13.390;2023-04-06T11:38:03;3.83;;;1.60;;
19727;SDS011;10015;52.530;13.390;2023-04-06T11:40:52;3.20;;;1.70;;
19727;SDS011;10015;52.530;13.390;2023-04-06T11:43:25;2.33;;;1.67;;
19727;SDS011;10015;52.530;13.390;2023-04-06T11:46:09;3.70;;;1.90;;
19727;SDS011;10015;52.530;13.390;2023-04-06T11:48:43;2.53;;;2.03;;
19727;SDS011;10015;52.530;13.390;2023-04-06T11:51:52;4.07;;;1.97;;
19727;SDS011;10015;52.530;13.390;2023-04-06T11:55:09;4.27;;;2.00;;
19727;SDS011;10015;52.530;13.390;2023-04-06T11:57:56;3.03;;;1.80;;
19727;SDS011;10015;52.530;13.390;2023-04-06T12:00:22;3.70;;;1.80;;
19727;SDS011;10015;52.530;13.390;2023-04-06T12:06:07;2.77;;;1.37;;
19727;SDS011;10015;52.530;13.390;2023-04-06T12:11:59;4.97;;;2.00;;
19727;SDS011;10015;52.530;13.390;2023-04-06T12:14:26;4.23;;;2.00;;
19727;SDS011;10015;52.530;13.390;2023-04-06T12:16:53;3.97;;;2.00;;
19727;SDS011;10015;52.530;13.390;2023-04-06T12:19:48;4.43;;;1.93;;
19727;SDS011;10015;52.530;13.390;2023-04-06T12:22:15;3.83;;;2.00;;
19727;SDS011;10015;52.530;13.390;2023-04-06T12:24:41;5.90;;;1.90;;
19727;SDS011;10015;52.530;13.390;2023-04-06T12:27:07;4.27;;;1.90;;
19727;SDS011;10015;52.530;13.390;2023-04-06T12:29:34;2.33;;;1.60;;
19727;SDS011;10015;52.530;13.390;2023-04-06T12:32:00;3.63;;;2.10;;
19727;SDS011;10015;52.530;13.390;2023-04-06T12:34:26;2.63;;;1.80;;
19727;SDS011;10015;52.530;13.390;2023-04-06T12:36:53;4.30;;;1.90;;
19727;SDS011;10015;52.530;13.390;2023-04-06T12:39:19;3.57;;;1.80;;
19727;SDS011;10015;52.530;13.390;2023-04-06T12:41:45;2.20;;;1.93;;
19727;SDS011;10015;52.530;13.390;2023-04-06T12:44:11;2.77;;;1.83;;
19727;SDS011;10015;52.530;13.390;2023-04-06T12:46:37;3.67;;;1.97;;
19727;SDS011;10015;52.530;13.390;2023-04-06T12:49:03;2.67;;;1.60;;
19727;SDS011;10015;52.530;13.390;2023-04-06T12:51:30;3.13;;;2.10;;
19727;SDS011;10015;52.530;13.390;2023-04-06T12:53:59;5.33;;;2.80;;
19727;SDS011;10015;52.530;13.390;2023-04-06T12:56:26;4.40;;;2.47;;
19727;SDS011;10015;52.530;13.390;2023-04-06T12:58:53;4.00;;;2.00;;
19727;SDS011;10015;52.530;13.390;2023-04-06T13:01:21;4.43;;;2.23;;
19727;SDS011;10015;52.530;13.390;2023-04-06T13:03:47;2.47;;;2.00;;
19727;SDS011;10015;52.530;13.390;2023-04-06T13:06:13;4.37;;;2.20;;
19727;SDS011;10015;52.530;13.390;2023-04-06T13:08:40;3.77;;;1.93;;
19727;SDS011;10015;52.530;13.390;2023-04-06T13:11:06;3.47;;;2.43;;
19727;SDS011;10015;52.530;13.390;2023-04-06T13:13:36;2.20;;;1.93;;
19727;SDS011;10015;52.530;13.390;2023-04-06T13:16:03;3.33;;;2.20;;
19727;SDS011;10015;52.530;13.390;2023-04-06T13:18:33;3.60;;;2.07;;
19727;SDS011;10015;52.530;13.390;2023-04-06T13:21:00;2.70;;;1.73;;
19727;SDS011;10015;52.530;13.390;2023-04-06T13:23:26;4.87;;;2.20;;
19727;SDS011;10015;52.530;13.390;2023-04-06T13:25:59;4.90;;;2.10;;
19727;SDS011;10015;52.530;13.390;2023-04-06T13:28:28;4.67;;;1.80;;
19727;SDS011;10015;52.530;13.390;2023-04-06T13:30:55;3.47;;;1.63;;
19727;SDS011;10015;52.530;13.390;2023-04-06T13:33:23;4.60;;;1.90;;
19727;SDS011;10015;52.530;13.390;2023-04-06T13:35:49;2.77;;;1.63;;
19727;SDS011;10015;52.530;13.390;2023-04-06T13:38:15;3.27;;;2.00;;
19727;SDS011;10015;52.530;13.390;2023-04-06T13:40:42;2.80;;;1.73;;
19727;SDS011;10015;52.530;13.390;2023-04-06T13:43:08;5.17;;;2.00;;
19727;SDS011;10015;52.530;13.390;2023-04-06T13:45:34;2.53;;;1.67;;
19727;SDS011;10015;52.530;13.390;2023-04-06T13:48:00;3.23;;;2.00;;
19727;SDS011;10015;52.530;13.390;2023-04-06T13:50:27;3.73;;;1.93;;
19727;SDS011;10015;52.530;13.390;2023-04-06T13:52:54;4.23;;;2.10;;
19727;SDS011;10015;52.530;13.390;2023-04-06T13:55:21;4.80;;;2.50;;
19727;SDS011;10015;52.530;13.390;2023-04-06T13:57:50;6.00;;;1.97;;
19727;SDS011;10015;52.530;13.390;2023-04-06T14:00:16;5.03;;;1.73;;
19727;SDS011;10015;52.530;13.390;2023-04-06T14:02:43;2.33;;;1.63;;
19727;SDS011;10015;52.530;13.390;2023-04-06T14:05:09;2.63;;;1.67;;
19727;SDS011;10015;52.530;13.390;2023-04-06T14:07:36;3.60;;;1.60;;
19727;SDS011;10015;52.530;13.390;2023-04-06T14:10:02;4.73;;;2.20;;
19727;SDS011;10015;52.530;13.390;2023-04-06T14:12:28;4.90;;;2.00;;
19727;SDS011;10015;52.530;13.390;2023-04-06T14:14:54;3.37;;;1.97;;
19727;SDS011;10015;52.530;13.390;2023-04-06T14:17:21;3.03;;;2.13;;
19727;SDS011;10015;52.530;13.390;2023-04-06T14:19:47;4.07;;;2.10;;
19727;SDS011;10015;52.530;13.390;2023-04-06T14:22:14;4.07;;;1.80;;
19727;SDS011;10015;52.530;13.390;2023-04-06T14:24:40;3.67;;;2.20;;
19727;SDS011;10015;52.530;13.390;2023-04-06T14:27:06;3.30;;;1.97;;
19727;SDS011;10015;52.530;13.390;2023-04-06T14:29:32;2.93;;;1.80;;
19727;SDS011;10015;52.530;13.390;2023-04-06T14:31:58;3.10;;;1.80;;
19727;SDS011;10015;52.530;13.390;2023-04-06T14:34:27;2.97;;;2.03;;
19727;SDS011;10015;52.530;13.390;2023-04-06T14:36:52;3.53;;;2.03;;
19727;SDS011;10015;52.530;13.390;2023-04-06T14:39:18;3.50;;;2.23;;
19727;SDS011;10015;52.530;13.390;2023-04-06T14:41:45;3.13;;;2.00;;
19727;SDS011;10015;52.530;13.390;2023-04-06T14:44:13;2.30;;;1.97;;
19727;SDS011;10015;52.530;13.390;2023-04-06T14:46:42;2.97;;;1.93;;
19727;SDS011;10015;52.530;13.390;2023-04-06T14:49:08;2.47;;;1.80;;
19727;SDS011;10015;52.530;13.390;2023-04-06T14:51:34;3.77;;;2.10;;
19727;SDS011;10015;52.530;13.390;2023-04-06T14:54:01;3.73;;;2.03;;
19727;SDS011;10015;52.530;13.390;2023-04-06T14:56:30;2.50;;;2.00;;
19727;SDS011;10015;52.530;13.390;2023-04-06T14:58:59;3.60;;;1.90;;
19727;SDS011;10015;52.530;13.390;2023-04-06T15:01:28;3.70;;;2.30;;
19727;SDS011;10015;52.530;13.390;2023-04-06T15:03:55;3.23;;;2.10;;
19727;SDS011;10015;52.530;13.390;2023-04-06T15:06:21;2.70;;;1.90;;
19727;SDS011;10015;52.530;13.390;2023-04-06T15:08:47;3.10;;;1.90;;
19727;SDS011;10015;52.530;13.390;2023-04-06T15:11:14;3.53;;;2.27;;
19727;SDS011;10015;52.530;13.390;2023-04-06T15:13:40;3.97;;;2.10;;
19727;SDS011;10015;52.530;13.390;2023-04-06T15:16:06;3.10;;;2.40;;
19727;SDS011;10015;52.530;13.390;2023-04-06T15:18:33;5.97;;;1.97;;
19727;SDS011;10015;52.530;13.390;2023-04-06T15:21:00;2.40;;;2.10;;
19727;SDS011;10015;52.530;13.390;2023-04-06T15:23:27;4.00;;;1.83;;
19727;SDS011;10015;52.530;13.390;2023-04-06T15:25:57;3.30;;;2.17;;
19727;SDS011;10015;52.530;13.390;2023-04-06T15:28:22;3.20;;;2.27;;
19727;SDS011;10015;52.530;13.390;2023-04-06T15:30:48;4.50;;;2.10;;
19727;SDS011;10015;52.530;13.390;2023-04-06T15:33:15;5.43;;;2.10;;
19727;SDS011;10015;52.530;13.390;2023-04-06T15:35:42;3.20;;;2.30;;
19727;SDS011;10015;52.530;13.390;2023-04-06T15:38:09;4.03;;;2.03;;
19727;SDS011;10015;52.530;13.390;2023-04-06T15:40:45;3.20;;;1.97;;
19727;SDS011;10015;52.530;13.390;2023-04-06T15:43:12;3.80;;;1.93;;
19727;SDS011;10015;52.530;13.390;2023-04-06T15:45:39;4.17;;;2.13;;
19727;SDS011;10015;52.530;13.390;2023-04-06T15:48:06;6.50;;;2.00;;
19727;SDS011;10015;52.530;13.390;2023-04-06T15:50:32;2.67;;;2.10;;
19727;SDS011;10015;52.530;13.390;2023-04-06T15:52:58;3.67;;;2.00;;
19727;SDS011;10015;52.530;13.390;2023-04-06T15:55:25;3.50;;;2.00;;